Rechercher aéroport 
image banner adimage banner ad
image banner ad

EVPA - Ikshkile

Situé à Ikshkile, Latvia

ICAO - EVPA, IATA -

Données fournies par Airmate  

Information générale

Coordonnées: N56°48'54" E24°31'40"
Élévation : 65 feet MSL.
Variation magnétique : 5° East
Voir autres Aéroports à Ogre District

Données opérationnelles

Accessible au public
Heure actuelle UTC:
Heure actuelle locale:
Météo à : EVRA - Riga ( 36 km )
METAR: EVRA 281450Z 15006KT CAVOK 10/08 Q1012 R18/190095 NOSIG
TAF: TAF EVRA 281400Z 2815/2915 17007KT 9999 SCT015 TEMPO 2900/2903 BKN012 OVC020 TEMPO 2903/2909 4000 RA BR BKN005 OVC015
Voir NOTAMs / SUP AIP / TFR affectant cet aéroport [VIEW]
Fréquences de communication: [VIEW]

Pistes:

Identifiant RWYQFULongueur (ft)Largeur (ft)SurfaceLDA (ft)
0885°196966GRASS
26265°196966GRASS

Coordonnées de l'aéroport

Adresse: Ikshkile Latvia

Vue satellite de EVPA